Time;durP1;ratioP1;P1;durP2;ratioP2;P2;SDS_P1;SDS_P2;PMS_P1;PMS_P2;Temp;Humidity;BMP_temperature;BMP_pressure;BME280_temperature;BME280_humidity;BME280_pressure;Samples;Min_cycle;Max_cycle;Signal;HPM_P1;HPM_P2
2022/06/29 00:00:19;;;;;;;9.82;2.58;;;;;;;;;;4955325;29;20179;-54
2022/06/29 00:02:46;;;;;;;6.35;2.17;;;;;;;;;;4936467;29;20210;-57
2022/06/29 00:05:13;;;;;;;4.70;2.10;;;;;;;;;;4955167;28;20186;-57
2022/06/29 00:07:40;;;;;;;8.10;2.05;;;;;;;;;;4955013;29;20171;-56
2022/06/29 00:10:06;;;;;;;4.30;1.83;;;;;;;;;;4954706;29;20198;-55
2022/06/29 00:12:32;;;;;;;6.00;2.17;;;;;;;;;;4953794;28;20194;-58
2022/06/29 00:15:02;;;;;;;7.38;2.20;;;;;;;;;;4937422;29;20571;-56
2022/06/29 00:17:29;;;;;;;6.57;2.05;;;;;;;;;;4938361;29;20191;-55
2022/06/29 00:19:56;;;;;;;6.80;2.05;;;;;;;;;;4922300;29;20179;-56
2022/06/29 00:22:22;;;;;;;5.85;2.22;;;;;;;;;;4952758;28;20273;-54
2022/06/29 00:24:48;;;;;;;5.57;2.40;;;;;;;;;;4954666;28;20221;-56
2022/06/29 00:27:14;;;;;;;7.43;2.10;;;;;;;;;;4954264;29;20182;-58
2022/06/29 00:29:40;;;;;;;5.57;1.90;;;;;;;;;;4954534;29;20273;-56
2022/06/29 00:32:06;;;;;;;5.18;2.03;;;;;;;;;;4937253;29;20195;-55
2022/06/29 00:34:33;;;;;;;7.03;2.05;;;;;;;;;;4954911;29;20226;-56
2022/06/29 00:36:59;;;;;;;5.55;2.10;;;;;;;;;;4954873;29;20646;-56
2022/06/29 00:39:25;;;;;;;4.50;2.25;;;;;;;;;;4954229;29;20182;-56
2022/06/29 00:41:52;;;;;;;5.55;2.38;;;;;;;;;;4953536;28;20186;-56
2022/06/29 00:44:18;;;;;;;5.10;1.92;;;;;;;;;;4954649;29;20729;-55
2022/06/29 00:46:47;;;;;;;9.57;2.35;;;;;;;;;;4955186;29;20183;-56
2022/06/29 00:49:15;;;;;;;7.93;2.28;;;;;;;;;;4953413;29;20237;-56
2022/06/29 00:51:44;;;;;;;5.45;1.85;;;;;;;;;;4954522;28;20191;-57
2022/06/29 00:54:13;;;;;;;6.30;2.20;;;;;;;;;;4936612;29;20694;-55
2022/06/29 00:56:40;;;;;;;4.40;2.25;;;;;;;;;;4954803;29;20225;-55
2022/06/29 00:59:08;;;;;;;3.88;2.10;;;;;;;;;;4954574;29;20213;-54
2022/06/29 01:01:36;;;;;;;11.88;2.55;;;;;;;;;;4954704;29;20174;-56
2022/06/29 01:04:02;;;;;;;10.60;2.30;;;;;;;;;;4943540;29;20187;-56
2022/06/29 01:06:28;;;;;;;4.07;2.10;;;;;;;;;;4954025;29;20269;-56
2022/06/29 01:08:54;;;;;;;5.00;2.22;;;;;;;;;;4937441;29;20187;-55
2022/06/29 01:11:20;;;;;;;6.53;2.40;;;;;;;;;;4952744;28;20179;-58
2022/06/29 01:13:48;;;;;;;8.32;2.30;;;;;;;;;;4937319;29;20193;-55
2022/06/29 01:16:14;;;;;;;5.47;2.40;;;;;;;;;;4954176;28;20274;-64
2022/06/29 01:18:40;;;;;;;6.88;2.33;;;;;;;;;;4958146;29;20242;-54
2022/06/29 01:21:09;;;;;;;5.60;2.15;;;;;;;;;;4957892;29;20186;-57
2022/06/29 01:23:35;;;;;;;5.20;2.28;;;;;;;;;;4956014;28;20215;-56
2022/06/29 01:26:04;;;;;;;5.28;2.10;;;;;;;;;;4957901;29;20171;-60
2022/06/29 01:28:31;;;;;;;6.30;2.40;;;;;;;;;;4958186;29;20218;-56
2022/06/29 01:30:57;;;;;;;6.22;2.00;;;;;;;;;;4939699;29;20269;-57
2022/06/29 01:33:24;;;;;;;8.88;2.30;;;;;;;;;;4956035;28;20190;-56
2022/06/29 01:35:50;;;;;;;9.98;2.38;;;;;;;;;;4957510;29;20214;-55
2022/06/29 01:38:17;;;;;;;5.40;2.42;;;;;;;;;;4957568;29;20597;-56
2022/06/29 01:40:43;;;;;;;6.93;2.17;;;;;;;;;;4957582;29;20186;-54
2022/06/29 01:43:09;;;;;;;7.40;2.40;;;;;;;;;;4955984;28;20203;-55
2022/06/29 01:45:36;;;;;;;4.63;2.03;;;;;;;;;;4957564;29;20182;-54
2022/06/29 01:48:02;;;;;;;6.65;2.10;;;;;;;;;;4924679;29;20191;-56
2022/06/29 01:50:28;;;;;;;4.85;2.10;;;;;;;;;;4957298;29;20211;-57
2022/06/29 01:52:54;;;;;;;5.50;2.28;;;;;;;;;;4939752;29;20190;-57
2022/06/29 01:55:20;;;;;;;4.90;2.40;;;;;;;;;;4956763;29;20190;-57
2022/06/29 01:57:46;;;;;;;4.68;1.95;;;;;;;;;;4957464;29;20206;-54
2022/06/29 02:00:13;;;;;;;3.80;2.08;;;;;;;;;;4955335;28;20194;-56
2022/06/29 02:02:39;;;;;;;6.18;2.20;;;;;;;;;;4957080;29;20706;-56
2022/06/29 02:05:06;;;;;;;3.50;2.22;;;;;;;;;;4956956;29;20187;-55
2022/06/29 02:07:32;;;;;;;3.20;2.20;;;;;;;;;;4939553;29;20551;-56
2022/06/29 02:09:58;;;;;;;6.15;2.28;;;;;;;;;;4946196;29;20190;-56
2022/06/29 02:12:25;;;;;;;5.90;2.47;;;;;;;;;;4956367;29;20183;-57
2022/06/29 02:14:51;;;;;;;6.72;2.67;;;;;;;;;;4939318;29;20266;-56
2022/06/29 02:17:19;;;;;;;6.15;2.50;;;;;;;;;;4939611;29;20178;-56
2022/06/29 02:19:45;;;;;;;3.75;2.10;;;;;;;;;;4955042;28;20234;-55
2022/06/29 02:22:12;;;;;;;4.90;2.55;;;;;;;;;;4937598;29;20545;-56
2022/06/29 02:24:38;;;;;;;6.10;2.63;;;;;;;;;;4937407;29;20183;-57
2022/06/29 02:27:04;;;;;;;5.00;2.38;;;;;;;;;;4955091;29;20213;-60
2022/06/29 02:29:30;;;;;;;7.80;2.60;;;;;;;;;;4955908;28;20211;-55
2022/06/29 02:34:44;;;;;;;6.97;2.97;;;;;;;;;;4956563;29;20198;-55
2022/06/29 02:37:14;;;;;;;6.55;2.88;;;;;;;;;;4955976;29;20179;-55
2022/06/29 02:39:42;;;;;;;6.00;2.92;;;;;;;;;;4956626;29;20229;-56
2022/06/29 02:42:09;;;;;;;6.45;3.20;;;;;;;;;;4954887;28;20187;-56
2022/06/29 02:44:35;;;;;;;4.65;2.83;;;;;;;;;;4956899;28;20190;-57
2022/06/29 02:47:02;;;;;;;8.30;2.67;;;;;;;;;;4955204;29;20634;-60
2022/06/29 02:49:28;;;;;;;7.75;3.10;;;;;;;;;;4954844;29;20677;-55
2022/06/29 02:51:54;;;;;;;5.40;2.80;;;;;;;;;;4954565;28;20206;-56
2022/06/29 02:54:20;;;;;;;6.72;3.03;;;;;;;;;;4955736;29;20210;-57
2022/06/29 02:56:46;;;;;;;4.88;3.20;;;;;;;;;;4956156;29;20178;-57
2022/06/29 02:59:12;;;;;;;8.85;3.47;;;;;;;;;;4955777;29;20209;-57
2022/06/29 03:01:38;;;;;;;8.18;3.17;;;;;;;;;;4956449;29;20638;-57
2022/06/29 03:04:04;;;;;;;5.40;2.97;;;;;;;;;;4953600;28;20194;-59
2022/06/29 03:06:31;;;;;;;7.60;3.17;;;;;;;;;;4956146;29;20191;-56
2022/06/29 03:08:57;;;;;;;8.27;3.10;;;;;;;;;;4938785;29;20179;-57
2022/06/29 03:11:23;;;;;;;10.95;3.10;;;;;;;;;;4955926;29;20233;-58
2022/06/29 03:13:49;;;;;;;7.63;3.28;;;;;;;;;;4954929;28;20186;-57
2022/06/29 03:16:15;;;;;;;5.72;3.28;;;;;;;;;;4955402;29;20233;-58
2022/06/29 03:18:41;;;;;;;4.72;2.90;;;;;;;;;;4944255;29;20191;-57
2022/06/29 03:21:08;;;;;;;7.55;3.25;;;;;;;;;;4955633;29;20642;-57
2022/06/29 03:23:34;;;;;;;5.32;3.55;;;;;;;;;;4953899;28;20194;-56
2022/06/29 03:26:00;;;;;;;10.70;3.35;;;;;;;;;;4955152;29;20190;-55
2022/06/29 03:28:26;;;;;;;5.45;3.35;;;;;;;;;;4955024;29;20214;-57
2022/06/29 03:30:52;;;;;;;10.93;3.72;;;;;;;;;;4955399;29;20572;-57
2022/06/29 03:33:19;;;;;;;6.53;3.25;;;;;;;;;;4955065;29;20200;-61
2022/06/29 03:35:45;;;;;;;6.85;3.70;;;;;;;;;;4954365;28;20198;-58
2022/06/29 03:38:11;;;;;;;7.50;3.60;;;;;;;;;;4955626;29;20178;-57
2022/06/29 03:40:37;;;;;;;9.57;3.50;;;;;;;;;;4937317;29;20187;-57
2022/06/29 03:43:03;;;;;;;7.00;3.65;;;;;;;;;;4937575;29;20178;-69
2022/06/29 03:45:29;;;;;;;5.68;3.55;;;;;;;;;;4954465;28;20677;-56
2022/06/29 03:47:55;;;;;;;6.82;3.55;;;;;;;;;;4955114;29;20187;-57
2022/06/29 03:50:21;;;;;;;4.00;3.40;;;;;;;;;;4954774;29;20210;-56
2022/06/29 03:52:49;;;;;;;5.22;3.35;;;;;;;;;;4950261;29;20241;-57
2022/06/29 03:55:15;;;;;;;7.38;3.38;;;;;;;;;;4936626;29;20554;-57
2022/06/29 03:57:41;;;;;;;7.00;3.45;;;;;;;;;;4954764;29;20174;-56
2022/06/29 04:00:09;;;;;;;5.78;3.70;;;;;;;;;;4937537;29;20185;-57
2022/06/29 04:02:39;;;;;;;5.65;3.50;;;;;;;;;;4955198;29;20186;-57
2022/06/29 04:05:05;;;;;;;6.63;3.58;;;;;;;;;;4953632;28;20265;-66
2022/06/29 04:07:32;;;;;;;8.02;3.47;;;;;;;;;;4954260;29;20658;-62
2022/06/29 04:10:01;;;;;;;5.60;3.35;;;;;;;;;;4954627;29;20206;-58
2022/06/29 04:12:36;;;;;;;6.78;3.97;;;;;;;;;;4953744;28;20289;-58
2022/06/29 04:15:04;;;;;;;5.03;3.58;;;;;;;;;;4954775;29;20226;-57
2022/06/29 04:17:30;;;;;;;4.82;3.60;;;;;;;;;;4953110;28;20603;-57
2022/06/29 04:19:56;;;;;;;8.15;3.70;;;;;;;;;;4937414;29;20190;-57
2022/06/29 04:22:22;;;;;;;8.13;3.80;;;;;;;;;;4954725;29;20167;-55
2022/06/29 04:24:49;;;;;;;11.50;5.55;;;;;;;;;;4954653;29;20187;-50
2022/06/29 04:27:15;;;;;;;6.13;3.78;;;;;;;;;;4952761;28;20258;-53
2022/06/29 04:29:42;;;;;;;9.70;4.00;;;;;;;;;;4954621;29;20556;-54
2022/06/29 04:32:09;;;;;;;7.65;4.03;;;;;;;;;;4954095;29;20214;-53
2022/06/29 04:34:35;;;;;;;8.90;3.92;;;;;;;;;;4950181;28;20249;-55
2022/06/29 04:37:01;;;;;;;5.47;3.90;;;;;;;;;;4935751;29;20179;-55
2022/06/29 04:39:27;;;;;;;5.45;3.80;;;;;;;;;;4935366;29;20252;-52
2022/06/29 04:41:54;;;;;;;7.35;4.13;;;;;;;;;;4952320;28;20241;-54
2022/06/29 04:44:21;;;;;;;5.68;4.07;;;;;;;;;;4934982;29;20533;-55
2022/06/29 04:46:47;;;;;;;7.60;4.10;;;;;;;;;;4944671;29;20315;-54
2022/06/29 04:49:13;;;;;;;8.77;4.47;;;;;;;;;;4943725;29;20214;-55
2022/06/29 04:51:39;;;;;;;8.40;4.22;;;;;;;;;;4936371;28;20197;-55
2022/06/29 04:54:05;;;;;;;7.05;4.55;;;;;;;;;;4958139;29;20179;-54
2022/06/29 04:56:33;;;;;;;8.65;4.47;;;;;;;;;;4955940;28;20187;-54
2022/06/29 04:59:00;;;;;;;9.48;4.82;;;;;;;;;;4941039;29;20655;-55
2022/06/29 05:01:26;;;;;;;8.65;4.40;;;;;;;;;;4958233;29;20181;-52
2022/06/29 05:03:53;;;;;;;6.68;4.40;;;;;;;;;;4957322;29;20221;-52
2022/06/29 05:06:20;;;;;;;9.70;4.30;;;;;;;;;;4957933;29;20182;-54
2022/06/29 05:08:47;;;;;;;7.22;4.78;;;;;;;;;;4956297;29;20187;-55
2022/06/29 05:11:14;;;;;;;9.63;5.43;;;;;;;;;;4939793;29;20740;-58
2022/06/29 05:13:43;;;;;;;8.55;4.70;;;;;;;;;;4957813;29;20195;-53
2022/06/29 05:16:09;;;;;;;7.22;4.68;;;;;;;;;;4957835;29;20281;-54
2022/06/29 05:18:37;;;;;;;6.97;4.50;;;;;;;;;;4958092;29;20187;-55
2022/06/29 05:21:03;;;;;;;9.13;5.45;;;;;;;;;;4955040;29;20273;-55
2022/06/29 05:23:30;;;;;;;7.50;4.97;;;;;;;;;;4957864;29;20273;-56
2022/06/29 05:25:57;;;;;;;9.85;5.32;;;;;;;;;;4957442;29;20658;-56
2022/06/29 05:28:23;;;;;;;10.20;5.30;;;;;;;;;;4957252;29;20186;-55
2022/06/29 05:30:50;;;;;;;8.55;5.20;;;;;;;;;;4940458;29;20271;-54
2022/06/29 05:33:16;;;;;;;7.60;5.45;;;;;;;;;;4955538;29;20195;-55
2022/06/29 05:35:43;;;;;;;7.90;5.35;;;;;;;;;;4937337;29;20190;-58
2022/06/29 05:38:09;;;;;;;9.95;5.65;;;;;;;;;;4953624;28;20182;-55
2022/06/29 05:40:35;;;;;;;8.95;5.88;;;;;;;;;;4936172;28;20537;-58
2022/06/29 05:43:01;;;;;;;8.88;5.55;;;;;;;;;;4946904;29;20213;-54
2022/06/29 05:45:27;;;;;;;6.95;5.65;;;;;;;;;;4955332;29;20171;-52
2022/06/29 05:47:54;;;;;;;8.55;5.50;;;;;;;;;;4952052;28;20702;-53
2022/06/29 05:50:21;;;;;;;10.15;5.82;;;;;;;;;;4956670;29;20202;-55
2022/06/29 05:52:47;;;;;;;9.32;6.00;;;;;;;;;;4953715;28;20886;-53
2022/06/29 05:55:14;;;;;;;9.73;6.35;;;;;;;;;;4938557;29;20225;-60
2022/06/29 05:57:40;;;;;;;7.90;5.72;;;;;;;;;;4956783;29;20171;-54
2022/06/29 06:00:07;;;;;;;7.65;5.80;;;;;;;;;;4923712;29;20182;-53
2022/06/29 06:02:42;;;;;;;9.98;5.78;;;;;;;;;;4938005;29;20285;-57
2022/06/29 06:05:08;;;;;;;11.30;6.50;;;;;;;;;;4905079;29;20195;-56
2022/06/29 06:07:34;;;;;;;11.15;6.07;;;;;;;;;;4950988;29;20313;-57
2022/06/29 06:10:01;;;;;;;9.02;6.15;;;;;;;;;;4939737;29;20218;-52
2022/06/29 06:12:28;;;;;;;9.75;6.05;;;;;;;;;;4952415;28;20179;-54
2022/06/29 06:14:57;;;;;;;12.00;6.63;;;;;;;;;;4949512;28;20186;-52
2022/06/29 06:17:26;;;;;;;14.57;6.43;;;;;;;;;;4955980;28;20231;-53
2022/06/29 06:19:53;;;;;;;12.18;5.75;;;;;;;;;;4954528;28;20194;-67
2022/06/29 06:22:19;;;;;;;15.35;5.28;;;;;;;;;;4954295;28;20178;-54
2022/06/29 06:24:45;;;;;;;12.80;5.40;;;;;;;;;;4955150;28;20182;-51
2022/06/29 06:27:11;;;;;;;8.57;5.68;;;;;;;;;;4939423;29;20246;-55
2022/06/29 06:29:37;;;;;;;10.32;5.75;;;;;;;;;;4954854;28;20304;-54
2022/06/29 06:32:04;;;;;;;10.52;5.55;;;;;;;;;;4956514;29;20178;-62
2022/06/29 06:34:31;;;;;;;11.13;5.60;;;;;;;;;;4953814;28;20222;-54
2022/06/29 06:36:59;;;;;;;11.18;6.07;;;;;;;;;;4955218;28;20713;-56
2022/06/29 06:39:25;;;;;;;13.05;5.45;;;;;;;;;;4956403;29;20202;-56
2022/06/29 06:41:51;;;;;;;13.77;5.85;;;;;;;;;;4955568;29;20234;-55
2022/06/29 06:44:18;;;;;;;11.10;5.70;;;;;;;;;;4955300;28;20189;-54
2022/06/29 06:46:48;;;;;;;7.35;5.28;;;;;;;;;;4954556;28;20183;-53
2022/06/29 06:49:23;;;;;;;9.77;5.30;;;;;;;;;;4938023;28;20269;-57
2022/06/29 06:51:51;;;;;;;9.05;5.78;;;;;;;;;;4956295;29;20233;-55
2022/06/29 06:54:17;;;;;;;13.85;5.68;;;;;;;;;;4954738;28;20190;-55
2022/06/29 06:56:43;;;;;;;9.30;5.10;;;;;;;;;;4954120;28;20187;-56
2022/06/29 06:59:09;;;;;;;8.88;5.80;;;;;;;;;;4955002;28;20194;-66
2022/06/29 07:01:35;;;;;;;11.57;5.32;;;;;;;;;;4954343;28;20654;-56
2022/06/29 07:04:02;;;;;;;10.10;6.20;;;;;;;;;;4938631;29;20282;-55
2022/06/29 07:06:28;;;;;;;10.70;5.78;;;;;;;;;;4937918;29;20651;-54
2022/06/29 07:08:54;;;;;;;11.20;5.32;;;;;;;;;;4938368;29;20539;-53
2022/06/29 07:11:20;;;;;;;9.77;5.53;;;;;;;;;;4954372;28;20203;-55
2022/06/29 07:13:47;;;;;;;9.40;5.63;;;;;;;;;;4937171;28;20654;-55
2022/06/29 07:16:13;;;;;;;8.10;5.30;;;;;;;;;;4935565;29;20589;-54
2022/06/29 07:18:39;;;;;;;11.63;5.10;;;;;;;;;;4934375;29;20198;-55
2022/06/29 07:21:05;;;;;;;16.65;5.50;;;;;;;;;;4934036;29;20286;-56
2022/06/29 07:23:31;;;;;;;10.32;5.10;;;;;;;;;;4934848;29;20651;-55
2022/06/29 07:25:57;;;;;;;11.55;5.32;;;;;;;;;;4934906;29;20184;-55
2022/06/29 07:28:23;;;;;;;10.70;5.85;;;;;;;;;;4937028;29;20183;-57
2022/06/29 07:30:50;;;;;;;12.68;4.72;;;;;;;;;;4934324;29;20219;-57
2022/06/29 07:33:16;;;;;;;6.88;4.82;;;;;;;;;;4934312;29;20673;-54
2022/06/29 07:35:42;;;;;;;8.25;4.38;;;;;;;;;;4935196;29;20198;-55
2022/06/29 07:38:10;;;;;;;8.77;5.20;;;;;;;;;;4934608;29;20599;-55
2022/06/29 07:40:36;;;;;;;7.60;5.03;;;;;;;;;;4934449;29;20195;-56
2022/06/29 07:43:02;;;;;;;8.27;4.80;;;;;;;;;;4935460;29;20194;-56
2022/06/29 07:45:28;;;;;;;7.38;4.68;;;;;;;;;;4936257;29;20179;-57
2022/06/29 07:47:54;;;;;;;10.50;4.63;;;;;;;;;;4934703;29;20693;-62
2022/06/29 07:50:20;;;;;;;12.57;5.15;;;;;;;;;;4934289;29;20250;-57
2022/06/29 07:52:47;;;;;;;8.20;4.60;;;;;;;;;;4933794;29;20283;-53
2022/06/29 07:55:13;;;;;;;7.05;4.72;;;;;;;;;;4935470;29;20203;-53
2022/06/29 07:57:39;;;;;;;9.65;4.35;;;;;;;;;;4933242;29;20614;-53
2022/06/29 08:00:05;;;;;;;11.98;4.45;;;;;;;;;;4935198;29;20195;-53
2022/06/29 08:02:38;;;;;;;11.13;4.45;;;;;;;;;;4934317;29;20196;-56
2022/06/29 08:05:04;;;;;;;9.77;4.40;;;;;;;;;;4934012;29;20187;-58
2022/06/29 08:07:30;;;;;;;5.85;4.43;;;;;;;;;;4926098;29;20319;-55
2022/06/29 08:09:56;;;;;;;7.80;4.60;;;;;;;;;;4929777;29;20233;-57
2022/06/29 08:12:22;;;;;;;9.23;4.47;;;;;;;;;;4934692;29;20187;-56
2022/06/29 08:14:48;;;;;;;6.10;3.85;;;;;;;;;;4932627;29;20181;-57
2022/06/29 08:17:15;;;;;;;8.85;4.63;;;;;;;;;;4934427;29;20582;-55
2022/06/29 08:19:41;;;;;;;7.15;3.97;;;;;;;;;;4917201;29;22129;-56
2022/06/29 08:22:07;;;;;;;9.95;4.28;;;;;;;;;;4933276;29;20639;-57
2022/06/29 08:24:33;;;;;;;10.55;4.70;;;;;;;;;;4933055;29;20206;-56
2022/06/29 08:26:59;;;;;;;14.25;5.13;;;;;;;;;;4937733;29;20588;-57
2022/06/29 08:29:25;;;;;;;9.35;4.50;;;;;;;;;;4939484;29;20242;-55
2022/06/29 08:31:51;;;;;;;7.32;4.07;;;;;;;;;;4936922;29;20215;-53
2022/06/29 08:34:21;;;;;;;9.35;4.40;;;;;;;;;;4937084;29;20188;-68
2022/06/29 08:36:47;;;;;;;7.97;4.50;;;;;;;;;;4938167;29;20197;-56
2022/06/29 08:39:13;;;;;;;9.60;4.90;;;;;;;;;;4939630;29;20191;-58
2022/06/29 08:41:41;;;;;;;10.38;4.35;;;;;;;;;;4936728;29;20714;-56
2022/06/29 08:44:07;;;;;;;5.95;4.50;;;;;;;;;;4938912;29;20179;-58
2022/06/29 08:46:33;;;;;;;6.15;4.13;;;;;;;;;;4937488;29;20563;-55
2022/06/29 08:49:01;;;;;;;16.65;4.60;;;;;;;;;;4939354;29;20516;-54
2022/06/29 08:51:33;;;;;;;10.95;4.97;;;;;;;;;;4938119;29;20270;-56
2022/06/29 08:53:59;;;;;;;9.38;4.18;;;;;;;;;;4937494;29;20262;-54
2022/06/29 08:56:25;;;;;;;7.10;4.72;;;;;;;;;;4919831;29;20183;-57
2022/06/29 08:58:51;;;;;;;8.77;4.60;;;;;;;;;;4937217;29;20554;-55
2022/06/29 09:01:18;;;;;;;11.10;4.63;;;;;;;;;;4937223;29;20202;-56
2022/06/29 09:03:45;;;;;;;8.93;4.28;;;;;;;;;;4937113;29;20242;-58
2022/06/29 09:06:11;;;;;;;8.48;4.97;;;;;;;;;;4938175;29;20175;-55
2022/06/29 09:08:37;;;;;;;7.45;5.10;;;;;;;;;;4936650;29;20647;-53
2022/06/29 09:11:22;;;;;;;14.60;7.32;;;;;;;;;;4938528;29;20697;-64
2022/06/29 09:14:08;;;;;;;9.57;4.40;;;;;;;;;;4937247;29;20223;-55
2022/06/29 09:16:50;;;;;;;8.27;4.30;;;;;;;;;;4950643;28;20230;-55
2022/06/29 09:19:16;;;;;;;8.45;4.03;;;;;;;;;;4957849;29;20190;-56
2022/06/29 09:21:45;;;;;;;8.65;4.15;;;;;;;;;;4956948;28;20179;-56
2022/06/29 09:24:18;;;;;;;8.38;3.55;;;;;;;;;;4956245;28;20658;-56
2022/06/29 09:26:49;;;;;;;5.90;4.10;;;;;;;;;;4939390;29;20646;-56
2022/06/29 09:29:22;;;;;;;14.10;4.20;;;;;;;;;;4956747;28;20662;-56
2022/06/29 09:32:04;;;;;;;10.43;3.97;;;;;;;;;;4952505;28;20187;-56
2022/06/29 09:34:30;;;;;;;8.43;4.05;;;;;;;;;;4956846;28;20230;-52
2022/06/29 09:36:57;;;;;;;7.85;4.20;;;;;;;;;;4939211;28;20669;-55
2022/06/29 09:39:32;;;;;;;7.20;3.75;;;;;;;;;;4957282;29;20221;-57
2022/06/29 09:41:59;;;;;;;5.78;3.30;;;;;;;;;;4956056;29;20174;-54
2022/06/29 09:44:25;;;;;;;4.40;2.30;;;;;;;;;;4955478;28;20195;-60
2022/06/29 09:46:56;;;;;;;4.05;2.60;;;;;;;;;;4939274;29;20631;-57
2022/06/29 09:49:25;;;;;;;5.10;2.80;;;;;;;;;;4957053;29;20210;-57
2022/06/29 09:51:54;;;;;;;3.65;2.50;;;;;;;;;;4956204;28;20190;-56
2022/06/29 09:54:21;;;;;;;5.90;2.92;;;;;;;;;;4956245;28;22216;-57
2022/06/29 09:56:48;;;;;;;5.93;2.33;;;;;;;;;;4955024;28;20197;-56
2022/06/29 09:59:21;;;;;;;5.63;2.65;;;;;;;;;;4956444;28;20183;-54
2022/06/29 10:04:33;;;;;;;5.22;2.65;;;;;;;;;;4928039;29;20193;-57
2022/06/29 10:07:00;;;;;;;6.35;2.97;;;;;;;;;;4956573;28;20195;-57
2022/06/29 10:09:26;;;;;;;10.88;2.90;;;;;;;;;;4956306;29;20222;-55
2022/06/29 10:15:06;;;;;;;13.23;2.70;;;;;;;;;;4956396;28;20197;-55
2022/06/29 10:17:39;;;;;;;7.88;2.40;;;;;;;;;;4954940;28;20232;-55
2022/06/29 10:20:22;;;;;;;5.70;2.65;;;;;;;;;;4955088;28;20174;-65
2022/06/29 10:22:49;;;;;;;8.45;2.72;;;;;;;;;;4956651;29;20191;-57
2022/06/29 10:25:15;;;;;;;5.78;2.80;;;;;;;;;;4954947;28;20186;-57
2022/06/29 10:27:59;;;;;;;5.10;2.50;;;;;;;;;;4939502;29;20183;-54
2022/06/29 10:30:28;;;;;;;5.15;2.38;;;;;;;;;;4955429;28;20320;-55
2022/06/29 10:33:14;;;;;;;9.15;2.20;;;;;;;;;;4955230;28;20185;-57
2022/06/29 10:36:04;;;;;;;9.68;2.90;;;;;;;;;;4938657;29;20650;-56
2022/06/29 10:38:31;;;;;;;5.90;2.50;;;;;;;;;;4939463;29;20199;-58
2022/06/29 10:41:08;;;;;;;4.60;2.60;;;;;;;;;;4956402;29;20186;-57
2022/06/29 10:43:38;;;;;;;6.60;2.30;;;;;;;;;;4953455;28;20187;-60
2022/06/29 10:46:04;;;;;;;6.90;2.88;;;;;;;;;;4952983;28;20286;-64
2022/06/29 10:48:31;;;;;;;4.97;1.92;;;;;;;;;;4954470;28;20190;-56
2022/06/29 10:50:58;;;;;;;5.13;1.95;;;;;;;;;;4955203;29;20284;-56
2022/06/29 10:53:24;;;;;;;5.80;2.10;;;;;;;;;;4954428;28;20206;-69
2022/06/29 10:55:52;;;;;;;3.60;1.80;;;;;;;;;;4954555;28;20562;-56
2022/06/29 10:58:18;;;;;;;5.72;1.85;;;;;;;;;;4954579;28;20237;-55
2022/06/29 11:00:46;;;;;;;4.40;2.00;;;;;;;;;;4936654;28;20328;-57
2022/06/29 11:03:23;;;;;;;8.13;2.10;;;;;;;;;;4937981;29;20597;-55
2022/06/29 11:14:06;;;;;;;5.30;1.90;;;;;;;;;;4954232;28;20198;-60
2022/06/29 11:16:34;;;;;;;5.68;1.80;;;;;;;;;;4918412;29;20230;-57
2022/06/29 11:19:00;;;;;;;6.60;1.90;;;;;;;;;;4949248;28;20545;-59
2022/06/29 11:21:30;;;;;;;6.25;2.10;;;;;;;;;;4953244;28;20198;-57
2022/06/29 11:24:03;;;;;;;9.55;1.52;;;;;;;;;;4938048;29;20190;-59
2022/06/29 11:26:30;;;;;;;6.72;1.88;;;;;;;;;;4937101;29;20213;-56
2022/06/29 11:28:59;;;;;;;2.45;1.83;;;;;;;;;;4953089;28;20669;-57
2022/06/29 11:31:26;;;;;;;5.03;1.70;;;;;;;;;;4952250;28;20273;-58
2022/06/29 11:33:53;;;;;;;5.25;1.92;;;;;;;;;;4952526;28;20183;-59
2022/06/29 11:36:26;;;;;;;4.13;1.95;;;;;;;;;;4954690;28;20222;-58
2022/06/29 11:38:54;;;;;;;5.47;1.77;;;;;;;;;;4922494;29;20627;-59
2022/06/29 11:41:20;;;;;;;8.27;1.60;;;;;;;;;;4955129;29;20171;-59
2022/06/29 11:43:46;;;;;;;5.82;1.52;;;;;;;;;;4936121;29;20184;-58
2022/06/29 11:46:23;;;;;;;4.65;1.80;;;;;;;;;;4935630;28;20572;-59
2022/06/29 11:51:48;;;;;;;18.77;5.55;;;;;;;;;;4933186;29;20199;-58
2022/06/29 11:54:14;;;;;;;14.73;6.70;;;;;;;;;;4954988;29;20228;-59
2022/06/29 11:56:42;;;;;;;21.80;8.30;;;;;;;;;;4954469;28;20660;-58
2022/06/29 11:59:10;;;;;;;17.92;8.90;;;;;;;;;;4953998;28;20191;-59
2022/06/29 12:01:37;;;;;;;14.13;8.25;;;;;;;;;;4937454;29;20622;-59
2022/06/29 12:04:03;;;;;;;13.00;8.02;;;;;;;;;;4953728;28;20198;-59
2022/06/29 12:06:35;;;;;;;13.30;7.93;;;;;;;;;;4937023;29;20194;-58
2022/06/29 12:09:01;;;;;;;15.20;7.18;;;;;;;;;;4937876;29;20197;-58
2022/06/29 12:11:29;;;;;;;14.05;7.25;;;;;;;;;;4953486;28;20296;-59
2022/06/29 12:13:55;;;;;;;13.43;7.53;;;;;;;;;;4954428;28;20191;-59
2022/06/29 12:16:21;;;;;;;10.05;6.63;;;;;;;;;;4952183;28;20230;-56
2022/06/29 12:18:47;;;;;;;14.35;6.75;;;;;;;;;;4952618;28;20186;-57
2022/06/29 12:21:13;;;;;;;12.95;6.50;;;;;;;;;;4953689;28;20194;-58
2022/06/29 12:23:39;;;;;;;14.60;6.78;;;;;;;;;;4937358;29;20646;-58
2022/06/29 12:26:06;;;;;;;12.68;6.47;;;;;;;;;;4954781;29;20241;-59
2022/06/29 12:28:32;;;;;;;11.75;6.05;;;;;;;;;;4937102;29;20661;-58
2022/06/29 12:30:58;;;;;;;13.35;5.28;;;;;;;;;;4953072;28;20230;-57
2022/06/29 12:33:25;;;;;;;11.68;4.82;;;;;;;;;;4953699;28;20194;-59
2022/06/29 12:35:52;;;;;;;7.85;4.30;;;;;;;;;;4954145;28;20241;-57
2022/06/29 12:38:18;;;;;;;9.35;4.18;;;;;;;;;;4952055;28;20210;-64
2022/06/29 12:40:44;;;;;;;10.15;4.03;;;;;;;;;;4926088;29;20186;-59
2022/06/29 12:43:10;;;;;;;8.85;3.63;;;;;;;;;;4953977;28;20186;-59
2022/06/29 12:45:36;;;;;;;10.35;3.92;;;;;;;;;;4936882;29;20206;-56
2022/06/29 12:48:02;;;;;;;11.18;3.75;;;;;;;;;;4954652;29;20189;-58
2022/06/29 12:50:29;;;;;;;6.85;4.18;;;;;;;;;;4953221;28;20211;-58
2022/06/29 12:52:55;;;;;;;14.13;3.78;;;;;;;;;;4935818;29;20593;-59
2022/06/29 12:55:22;;;;;;;10.98;3.95;;;;;;;;;;4952775;28;20174;-58
2022/06/29 12:57:48;;;;;;;8.65;3.60;;;;;;;;;;4954093;28;20210;-60
2022/06/29 13:00:15;;;;;;;14.88;3.70;;;;;;;;;;4955395;28;20214;-57
2022/06/29 13:02:42;;;;;;;12.32;3.60;;;;;;;;;;4954721;28;20203;-59
2022/06/29 13:05:08;;;;;;;7.55;3.20;;;;;;;;;;4937317;28;20194;-59
2022/06/29 13:07:35;;;;;;;9.20;3.00;;;;;;;;;;4955366;28;20241;-57
2022/06/29 13:10:01;;;;;;;13.13;3.70;;;;;;;;;;4955512;28;20327;-58
2022/06/29 13:12:27;;;;;;;7.88;3.83;;;;;;;;;;4956119;28;20194;-58
2022/06/29 13:14:54;;;;;;;10.38;3.42;;;;;;;;;;4942093;29;20187;-58
2022/06/29 13:17:20;;;;;;;16.25;3.50;;;;;;;;;;4959677;29;20233;-58
2022/06/29 13:19:46;;;;;;;12.57;3.42;;;;;;;;;;4958833;29;20178;-58
2022/06/29 13:22:13;;;;;;;8.13;3.28;;;;;;;;;;4956972;28;20185;-58
2022/06/29 13:24:40;;;;;;;7.30;3.00;;;;;;;;;;4938972;28;20226;-59
2022/06/29 13:27:06;;;;;;;6.00;2.67;;;;;;;;;;4940164;29;20187;-59
2022/06/29 13:29:32;;;;;;;5.57;2.88;;;;;;;;;;4941240;29;20214;-59
2022/06/29 13:31:59;;;;;;;10.52;3.30;;;;;;;;;;4956143;28;20202;-59
2022/06/29 13:34:27;;;;;;;11.45;3.35;;;;;;;;;;4957935;29;20564;-58
2022/06/29 13:36:53;;;;;;;9.20;3.30;;;;;;;;;;4938669;29;20210;-58
2022/06/29 13:39:19;;;;;;;12.60;3.00;;;;;;;;;;4955888;28;20183;-58
2022/06/29 13:41:46;;;;;;;7.85;2.70;;;;;;;;;;4956512;28;20560;-57
2022/06/29 13:44:12;;;;;;;13.63;2.85;;;;;;;;;;4956800;28;20178;-59
2022/06/29 13:46:38;;;;;;;7.32;3.05;;;;;;;;;;4944086;29;20564;-57
2022/06/29 13:49:04;;;;;;;4.85;3.05;;;;;;;;;;4940642;29;20198;-62
2022/06/29 13:51:30;;;;;;;7.45;3.00;;;;;;;;;;4956664;28;20242;-59
2022/06/29 13:53:57;;;;;;;8.10;2.70;;;;;;;;;;4956690;28;20269;-59
2022/06/29 13:56:23;;;;;;;7.40;3.00;;;;;;;;;;4956358;28;20701;-60
2022/06/29 13:58:49;;;;;;;7.30;2.50;;;;;;;;;;4956918;29;20191;-59
2022/06/29 14:01:15;;;;;;;12.65;2.47;;;;;;;;;;4957821;29;20175;-60
2022/06/29 14:03:42;;;;;;;7.03;2.17;;;;;;;;;;4940710;29;20186;-58
2022/06/29 14:06:08;;;;;;;4.45;2.00;;;;;;;;;;4951277;28;20183;-60
2022/06/29 14:08:34;;;;;;;6.45;2.47;;;;;;;;;;4937441;29;20179;-59
2022/06/29 14:11:01;;;;;;;9.50;2.30;;;;;;;;;;4939469;29;20274;-59
2022/06/29 14:13:27;;;;;;;6.10;2.03;;;;;;;;;;4939100;29;20175;-60
2022/06/29 14:15:53;;;;;;;5.38;2.13;;;;;;;;;;4940019;29;20223;-58
2022/06/29 14:18:19;;;;;;;4.30;2.10;;;;;;;;;;4956737;29;20198;-59
2022/06/29 14:20:46;;;;;;;4.68;2.15;;;;;;;;;;4957085;29;20190;-59
2022/06/29 14:23:12;;;;;;;6.40;2.20;;;;;;;;;;4956477;28;20189;-59
2022/06/29 14:25:38;;;;;;;6.57;2.33;;;;;;;;;;4956107;29;20183;-59
2022/06/29 14:28:05;;;;;;;4.82;2.00;;;;;;;;;;4956090;29;20643;-62
2022/06/29 14:30:31;;;;;;;4.10;2.10;;;;;;;;;;4956644;29;20222;-59
2022/06/29 14:32:57;;;;;;;7.57;2.35;;;;;;;;;;4956875;29;20186;-59
2022/06/29 14:35:24;;;;;;;5.25;2.45;;;;;;;;;;4956581;29;20634;-60
2022/06/29 14:37:50;;;;;;;6.70;2.20;;;;;;;;;;4938108;29;20192;-59
2022/06/29 14:40:17;;;;;;;4.88;2.35;;;;;;;;;;4942749;29;20186;-59
2022/06/29 14:42:43;;;;;;;8.48;2.60;;;;;;;;;;4954008;29;20229;-59
2022/06/29 14:45:10;;;;;;;6.78;2.20;;;;;;;;;;4956388;29;20210;-59
2022/06/29 14:47:36;;;;;;;8.15;2.50;;;;;;;;;;4938373;29;20229;-58
2022/06/29 14:50:02;;;;;;;11.82;3.17;;;;;;;;;;4932738;29;20242;-59
2022/06/29 14:52:28;;;;;;;6.55;2.40;;;;;;;;;;4923243;29;20642;-59
2022/06/29 14:54:55;;;;;;;6.45;2.60;;;;;;;;;;4956107;29;20190;-59
2022/06/29 14:57:22;;;;;;;7.10;2.45;;;;;;;;;;4938876;29;20221;-59
2022/06/29 14:59:49;;;;;;;9.02;2.60;;;;;;;;;;4938481;29;20298;-59